Time;durP1;ratioP1;P1;durP2;ratioP2;P2;SDS_P1;SDS_P2;PMS_P1;PMS_P2;Temp;Humidity;BMP_temperature;BMP_pressure;BME280_temperature;BME280_humidity;BME280_pressure;Samples;Min_cycle;Max_cycle;Signal;HPM_P1;HPM_P2
2021/06/28 00:08:04;;;;;;;5.40;2.80;;;22.50;61.10;;;;;;20751228;28;20147;-21
2021/06/28 00:18:06;;;;;;;4.30;2.90;;;22.50;61.10;;;;;;20758761;28;20463;-21
2021/06/28 00:28:08;;;;;;;3.58;2.55;;;22.50;61.20;;;;;;20768169;28;20033;-21
2021/06/28 00:38:09;;;;;;;4.82;3.25;;;22.50;61.50;;;;;;20772795;28;20038;-21
2021/06/28 00:48:13;;;;;;;4.43;3.05;;;22.50;61.50;;;;;;20783788;28;20034;-21
2021/06/28 00:58:14;;;;;;;5.78;2.90;;;22.50;61.70;;;;;;20780216;28;20029;-22
2021/06/28 01:08:15;;;;;;;3.38;2.50;;;22.40;61.90;;;;;;20778003;28;20476;-21
2021/06/28 01:18:16;;;;;;;6.13;3.03;;;22.50;62.00;;;;;;20779424;28;20033;-22
2021/06/28 01:28:16;;;;;;;3.75;2.50;;;22.40;62.30;;;;;;20769448;28;20037;-21
2021/06/28 01:38:17;;;;;;;6.05;3.85;;;22.40;62.80;;;;;;20752635;28;20040;-21
2021/06/28 01:48:18;;;;;;;3.53;2.57;;;22.40;62.20;;;;;;20746775;28;20109;-22
2021/06/28 01:58:19;;;;;;;3.38;2.63;;;22.40;62.30;;;;;;20758814;28;20065;-21
2021/06/28 02:08:22;;;;;;;6.20;2.73;;;22.40;62.20;;;;;;20748096;28;20034;-21
2021/06/28 02:18:24;;;;;;;5.15;3.42;;;22.40;61.90;;;;;;20744589;28;20461;-21
2021/06/28 02:28:26;;;;;;;3.42;2.85;;;22.30;61.30;;;;;;20750778;28;20122;-20
2021/06/28 02:38:27;;;;;;;3.50;2.40;;;22.30;61.10;;;;;;20747579;28;20049;-20
2021/06/28 02:48:28;;;;;;;4.28;2.85;;;22.30;61.10;;;;;;20742773;28;20041;-20
2021/06/28 02:58:28;;;;;;;4.10;2.20;;;22.30;61.70;;;;;;20740956;28;20109;-20
2021/06/28 03:08:29;;;;;;;4.35;2.55;;;22.30;61.90;;;;;;20742689;28;21246;-21
2021/06/28 03:18:30;;;;;;;3.25;2.17;;;22.30;61.50;;;;;;20741848;28;20026;-21
2021/06/28 03:28:31;;;;;;;3.28;2.60;;;22.30;61.60;;;;;;20742253;28;20028;-20
2021/06/28 03:38:32;;;;;;;3.92;2.58;;;22.20;61.80;;;;;;20761234;28;20486;-19
2021/06/28 03:48:32;;;;;;;3.88;2.58;;;22.20;61.80;;;;;;20760142;28;20049;-20
2021/06/28 03:58:37;;;;;;;4.60;3.15;;;22.20;62.10;;;;;;20740098;28;20087;-20
2021/06/28 04:08:39;;;;;;;4.70;2.60;;;22.20;61.80;;;;;;20775143;28;20060;-20
2021/06/28 04:18:39;;;;;;;5.38;2.90;;;22.20;62.10;;;;;;20768287;28;20026;-21
2021/06/28 04:28:40;;;;;;;3.67;2.40;;;22.20;62.10;;;;;;20768935;28;20389;-21
2021/06/28 04:38:40;;;;;;;5.75;3.65;;;22.20;61.60;;;;;;20761097;28;20037;-21
2021/06/28 04:48:41;;;;;;;4.47;3.20;;;22.20;61.60;;;;;;20769524;28;20045;-21
2021/06/28 04:58:41;;;;;;;5.30;2.97;;;22.20;61.80;;;;;;20787902;28;20398;-21
2021/06/28 05:08:42;;;;;;;5.57;3.15;;;22.20;61.30;;;;;;20721771;28;20085;-20
2021/06/28 05:18:42;;;;;;;10.83;2.80;;;22.20;61.50;;;;;;20756072;28;20075;-21
2021/06/28 05:28:43;;;;;;;5.43;3.10;;;22.20;61.70;;;;;;20738624;28;20427;-21
2021/06/28 05:38:44;;;;;;;6.90;3.80;;;22.20;61.80;;;;;;20796264;28;20045;-21
2021/06/28 05:48:44;;;;;;;9.15;3.05;;;22.20;61.80;;;;;;20776458;28;20037;-22
2021/06/28 05:58:45;;;;;;;10.35;4.05;;;22.20;61.60;;;;;;20778414;28;20030;-21
2021/06/28 06:08:46;;;;;;;10.43;3.78;;;22.30;61.60;;;;;;20783512;28;20076;-21
2021/06/28 06:18:46;;;;;;;14.50;6.10;;;22.30;61.70;;;;;;20775788;28;20449;-21
2021/06/28 06:28:47;;;;;;;18.85;5.15;;;22.30;62.60;;;;;;20752908;28;20034;-21
2021/06/28 06:38:47;;;;;;;15.13;5.07;;;22.30;62.80;;;;;;20772843;28;20029;-20
2021/06/28 06:48:48;;;;;;;13.07;6.40;;;22.30;62.70;;;;;;20712677;28;20038;-20
2021/06/28 06:58:49;;;;;;;15.32;6.15;;;22.50;62.90;;;;;;20735299;28;20449;-20
2021/06/28 07:08:49;;;;;;;13.80;6.25;;;22.40;63.20;;;;;;20739671;28;20069;-20
2021/06/28 07:18:50;;;;;;;13.80;5.25;;;22.50;63.20;;;;;;20740087;28;20406;-20
2021/06/28 07:28:52;;;;;;;14.10;6.00;;;22.50;63.20;;;;;;20740424;28;20030;-20
2021/06/28 07:38:52;;;;;;;12.35;5.93;;;22.50;63.20;;;;;;20740252;28;20387;-21
2021/06/28 07:48:53;;;;;;;44.00;8.07;;;22.60;63.20;;;;;;20729382;28;20026;-20
2021/06/28 07:58:54;;;;;;;33.17;6.45;;;22.70;63.30;;;;;;20736421;28;20390;-20
2021/06/28 08:08:55;;;;;;;12.60;5.65;;;22.60;63.50;;;;;;20735881;28;20026;-21
2021/06/28 08:18:56;;;;;;;17.50;5.53;;;22.70;63.40;;;;;;20740858;28;20088;-21
2021/06/28 08:28:57;;;;;;;13.43;6.03;;;22.70;63.30;;;;;;20753374;28;20033;-21
2021/06/28 08:38:57;;;;;;;24.50;5.18;;;22.70;63.20;;;;;;20724520;28;20033;-21
2021/06/28 08:48:59;;;;;;;17.30;5.53;;;22.70;63.10;;;;;;20752740;28;20417;-22
2021/06/28 08:59:00;;;;;;;10.45;4.78;;;22.70;63.10;;;;;;20749516;28;20135;-21
2021/06/28 09:09:06;;;;;;;13.27;4.97;;;22.80;63.20;;;;;;20733253;28;20033;-21
2021/06/28 09:19:18;;;;;;;8.23;3.85;;;22.70;63.10;;;;;;20752051;28;20018;-19
2021/06/28 09:29:34;;;;;;;9.95;4.38;;;22.80;63.10;;;;;;20775169;28;20088;-19
2021/06/28 09:39:40;;;;;;;8.90;4.40;;;22.80;62.90;;;;;;20773102;28;20085;-20
2021/06/28 09:49:58;;;;;;;7.47;4.13;;;22.90;62.90;;;;;;20778697;28;20100;-21
2021/06/28 09:59:59;;;;;;;9.82;4.32;;;22.80;62.90;;;;;;20775611;28;20112;-21
2021/06/28 10:10:29;;;;;;;7.63;4.18;;;22.90;62.90;;;;;;20787710;28;20037;-21
2021/06/28 10:20:32;;;;;;;5.88;4.03;;;22.90;62.90;;;;;;20452034;29;20153;-21
2021/06/28 10:30:33;;;;;;;6.38;3.67;;;22.90;62.90;;;;;;20445956;29;20053;-21
2021/06/28 10:40:53;;;;;;;5.72;4.15;;;23.00;62.90;;;;;;20439584;29;20118;-21
2021/06/28 10:51:01;;;;;;;7.63;4.13;;;23.00;62.80;;;;;;20524959;28;20041;-21
2021/06/28 11:01:04;;;;;;;5.67;4.37;;;23.00;62.80;;;;;;20742303;28;20025;-21
2021/06/28 11:11:05;;;;;;;6.88;4.72;;;23.00;62.80;;;;;;20720395;28;20394;-19
2021/06/28 11:21:05;;;;;;;15.15;4.80;;;23.10;62.70;;;;;;20740257;28;20112;-20
2021/06/28 11:31:08;;;;;;;5.13;3.58;;;23.10;62.80;;;;;;20728934;28;20029;-21
2021/06/28 11:41:08;;;;;;;5.22;4.07;;;23.10;62.80;;;;;;20754677;28;20033;-20
2021/06/28 11:51:25;;;;;;;9.88;3.97;;;23.10;62.70;;;;;;20773153;28;20418;-20
2021/06/28 12:01:51;;;;;;;7.45;4.15;;;23.10;62.60;;;;;;20744930;28;20053;-21
2021/06/28 12:11:59;;;;;;;4.30;3.53;;;23.20;62.70;;;;;;20728581;28;20518;-21
2021/06/28 12:22:07;;;;;;;10.05;5.15;;;23.20;62.50;;;;;;20781247;28;20029;-21
2021/06/28 12:32:28;;;;;;;;;;;23.20;62.40;;;;;;20787493;28;20058;-21
2021/06/28 12:42:29;;;;;;;5.38;4.38;;;23.20;62.30;;;;;;20763048;28;19951;-20
2021/06/28 12:52:35;;;;;;;4.93;4.17;;;23.20;62.40;;;;;;20755688;28;20022;-21
2021/06/28 13:02:36;;;;;;;8.57;4.63;;;23.20;62.30;;;;;;20728330;28;20115;-21
2021/06/28 13:12:36;;;;;;;19.90;6.03;;;23.20;62.70;;;;;;20770761;28;20038;-21
2021/06/28 13:22:41;;;;;;;18.52;5.95;;;23.20;63.00;;;;;;20756614;28;20088;-21
2021/06/28 13:32:42;;;;;;;23.25;7.20;;;23.30;63.00;;;;;;20753904;28;20033;-20
2021/06/28 13:42:54;;;;;;;22.02;7.57;;;23.30;63.00;;;;;;20748343;28;20117;-21
2021/06/28 13:52:55;;;;;;;24.67;7.55;;;23.20;63.00;;;;;;20748145;28;20503;-20
2021/06/28 14:02:58;;;;;;;20.75;6.63;;;23.30;63.00;;;;;;20754416;28;20030;-20
2021/06/28 14:12:59;;;;;;;35.45;10.30;;;23.30;63.20;;;;;;20721017;28;20033;-21
2021/06/28 14:23:00;;;;;;;19.75;6.90;;;23.30;62.90;;;;;;20745442;28;20030;-19
2021/06/28 14:33:01;;;;;;;23.30;6.53;;;23.30;62.80;;;;;;20745075;28;20117;-21
2021/06/28 14:43:02;;;;;;;18.80;5.75;;;23.30;62.70;;;;;;20748068;28;20105;-21
2021/06/28 14:53:03;;;;;;;23.73;6.25;;;23.20;62.60;;;;;;20743402;28;20525;-21
2021/06/28 15:03:04;;;;;;;12.57;6.70;;;23.20;62.60;;;;;;20742637;28;20516;-21
2021/06/28 15:13:05;;;;;;;16.08;6.22;;;23.20;62.60;;;;;;20721125;28;20119;-21
2021/06/28 15:23:05;;;;;;;8.43;6.15;;;23.30;62.70;;;;;;20750812;28;20103;-21
2021/06/28 15:33:06;;;;;;;14.55;6.55;;;23.30;62.70;;;;;;20768867;28;20574;-21
2021/06/28 15:43:07;;;;;;;9.23;6.17;;;23.30;62.70;;;;;;20775848;28;20034;-21
2021/06/28 15:53:07;;;;;;;12.93;6.80;;;23.30;62.70;;;;;;20722946;28;20879;-21
2021/06/28 16:03:08;;;;;;;9.80;5.43;;;23.30;62.70;;;;;;20736799;28;20045;-21
2021/06/28 16:13:09;;;;;;;8.67;5.17;;;23.30;62.70;;;;;;20759908;28;20054;-21
2021/06/28 16:23:09;;;;;;;8.52;5.82;;;23.30;62.70;;;;;;20762977;28;20525;-21
2021/06/28 16:33:10;;;;;;;18.23;6.53;;;23.30;62.90;;;;;;20770340;28;20030;-21
2021/06/28 16:43:10;;;;;;;33.17;8.25;;;23.30;64.00;;;;;;20774347;28;20513;-21
2021/06/28 16:53:11;;;;;;;57.92;9.18;;;23.40;64.10;;;;;;20711003;28;20046;-21
2021/06/28 17:03:11;;;;;;;39.65;9.25;;;23.30;64.50;;;;;;20769600;28;20629;-21
2021/06/28 17:13:12;;;;;;;33.10;7.35;;;23.50;65.00;;;;;;20774951;28;20546;-21
2021/06/28 17:23:13;;;;;;;35.40;10.20;;;23.50;64.90;;;;;;20738129;28;20495;-20
2021/06/28 17:33:13;;;;;;;25.77;8.77;;;23.50;65.00;;;;;;20721269;28;20053;-20
2021/06/28 17:43:14;;;;;;;38.75;8.07;;;23.40;64.60;;;;;;20706739;28;20023;-21
2021/06/28 17:53:14;;;;;;;16.53;7.33;;;23.40;64.50;;;;;;20698106;28;20026;-21
2021/06/28 18:03:15;;;;;;;26.58;7.03;;;23.50;64.40;;;;;;20738882;28;20030;-21
2021/06/28 18:13:16;;;;;;;19.00;7.43;;;23.40;64.40;;;;;;20725631;28;20167;-20
2021/06/28 18:23:16;;;;;;;21.40;7.22;;;23.50;64.80;;;;;;20732300;28;20255;-21
2021/06/28 18:33:17;;;;;;;19.53;6.67;;;23.50;64.80;;;;;;20736449;28;20030;-21
2021/06/28 18:43:17;;;;;;;22.80;6.82;;;23.50;64.70;;;;;;20741871;28;20873;-21
2021/06/28 18:53:18;;;;;;;18.00;7.30;;;23.40;64.50;;;;;;20743196;28;20044;-21
2021/06/28 19:03:21;;;;;;;14.30;6.82;;;23.40;64.40;;;;;;20749059;28;20037;-21
2021/06/28 19:13:24;;;;;;;15.50;7.22;;;23.30;64.20;;;;;;20746067;28;20034;-20
2021/06/28 19:23:25;;;;;;;21.65;6.63;;;23.30;64.40;;;;;;20744458;28;20033;-20
2021/06/28 19:33:27;;;;;;;11.07;7.72;;;23.40;65.00;;;;;;20759386;28;20026;-20
2021/06/28 19:43:27;;;;;;;14.95;6.43;;;23.30;64.60;;;;;;20764081;28;20034;-20
2021/06/28 19:53:28;;;;;;;25.40;8.43;;;23.40;65.00;;;;;;20752512;28;20080;-20
2021/06/28 20:03:29;;;;;;;15.10;6.50;;;23.30;64.50;;;;;;20758596;28;20466;-21
2021/06/28 20:13:30;;;;;;;11.10;6.03;;;23.30;64.60;;;;;;20787381;28;20033;-21
2021/06/28 20:23:30;;;;;;;12.82;6.57;;;23.30;64.60;;;;;;20776407;28;20029;-21
2021/06/28 20:33:31;;;;;;;11.75;6.28;;;23.20;64.50;;;;;;20764423;28;20071;-21
2021/06/28 20:43:32;;;;;;;10.60;7.30;;;23.20;64.40;;;;;;20763938;28;20475;-21
2021/06/28 20:53:33;;;;;;;8.80;5.70;;;23.20;64.30;;;;;;20769794;28;20105;-21
2021/06/28 21:03:34;;;;;;;12.35;5.95;;;23.20;64.40;;;;;;20770103;28;20034;-21
2021/06/28 21:13:34;;;;;;;10.73;6.32;;;23.20;64.70;;;;;;20682305;28;20170;-21
2021/06/28 21:23:35;;;;;;;11.07;5.90;;;23.20;65.20;;;;;;20749356;28;20125;-21
2021/06/28 21:33:35;;;;;;;7.72;5.88;;;23.20;65.00;;;;;;20792362;28;20449;-20
2021/06/28 21:43:36;;;;;;;16.50;7.78;;;23.20;65.40;;;;;;20796718;28;20030;-20
2021/06/28 21:53:38;;;;;;;14.67;6.43;;;23.20;66.80;;;;;;20717082;28;20025;-20
2021/06/28 22:03:39;;;;;;;15.60;6.97;;;23.10;67.20;;;;;;20737154;28;20461;-20
2021/06/28 22:13:40;;;;;;;8.57;5.80;;;23.20;67.30;;;;;;20728279;28;20040;-19
2021/06/28 22:23:41;;;;;;;8.98;5.68;;;23.10;66.90;;;;;;20689520;28;20025;-20
2021/06/28 22:33:41;;;;;;;9.00;4.88;;;23.10;66.80;;;;;;20670608;28;20033;-22
2021/06/28 22:43:42;;;;;;;8.68;5.40;;;23.10;67.10;;;;;;20778052;28;20044;-20
2021/06/28 22:53:43;;;;;;;7.07;5.68;;;23.10;67.20;;;;;;20776377;28;20662;-20
2021/06/28 23:03:43;;;;;;;10.75;5.13;;;23.10;68.10;;;;;;20777362;28;20026;-20
2021/06/28 23:13:44;;;;;;;7.87;4.77;;;23.10;67.30;;;;;;20769175;28;20049;-21
2021/06/28 23:23:45;;;;;;;8.27;5.00;;;23.10;68.30;;;;;;20748082;28;20468;-22
2021/06/28 23:33:45;;;;;;;6.25;5.35;;;23.10;67.20;;;;;;20768258;28;20534;-22
2021/06/28 23:43:46;;;;;;;8.85;5.35;;;23.10;67.40;;;;;;20753226;28;20033;-21
2021/06/28 23:53:46;;;;;;;6.28;5.53;;;23.10;67.60;;;;;;20741321;28;20036;-21
